MIR weather

Monastir Habib Bourguiba International Airport
Monastir, Monastir Governorate, Tunisia

Public forecast

Using degrees Celsius for public forecast. Weather courtesy of forecast.io.

Current aviation weather report (METAR) for Monastir Habib Bourguiba International Airport

Retrieved 2019/10/20 22:30 UTC (2 minutes ago):

DTMB 202230Z 15006KT CAVOK 23/23 Q1017 NOSIG

Aviation forecast (TAF) for Monastir Habib Bourguiba International Airport

Retrieved 2019/10/20 18:36 UTC (4 hours ago):

TAF DTMB 201700Z 2018/2118 1 010KT CAVOK PROB30 TEMPO 2113/2118 4000 -TSRA FEW026CB